createdAt,value
2023-01-23T00:01:36.337Z,8.20
2023-01-23T00:04:06.690Z,10.10
2023-01-23T00:06:34.792Z,7.55
2023-01-23T00:09:06.598Z,9.10
2023-01-23T00:11:35.049Z,7.93
2023-01-23T00:14:03.983Z,10.05
2023-01-23T00:16:33.982Z,8.75
2023-01-23T00:19:02.074Z,10.55
2023-01-23T00:21:31.138Z,10.88
2023-01-23T00:24:01.561Z,9.75
2023-01-23T00:26:33.903Z,7.72
2023-01-23T00:29:03.295Z,8.88
2023-01-23T00:31:33.329Z,6.53
2023-01-23T00:34:03.096Z,9.68
2023-01-23T00:36:32.722Z,6.80
2023-01-23T00:39:01.330Z,6.72
2023-01-23T00:41:33.171Z,7.40
2023-01-23T00:44:01.198Z,7.38
2023-01-23T00:46:29.202Z,9.85
2023-01-23T00:48:57.197Z,7.82
2023-01-23T00:51:25.579Z,8.75
2023-01-23T00:53:54.244Z,7.80
2023-01-23T00:56:22.191Z,7.13
2023-01-23T00:58:54.801Z,5.80
2023-01-23T01:01:23.758Z,8.27
2023-01-23T01:03:51.889Z,9.88
2023-01-23T01:06:20.034Z,6.90
2023-01-23T01:08:49.531Z,8.55
2023-01-23T01:11:17.715Z,9.43
2023-01-23T01:13:46.424Z,7.35
2023-01-23T01:16:15.745Z,7.10
2023-01-23T01:18:44.160Z,7.20
2023-01-23T01:21:16.370Z,7.97
2023-01-23T01:26:14.995Z,6.43
2023-01-23T01:28:43.290Z,6.93
2023-01-23T01:31:13.922Z,6.43
2023-01-23T01:33:44.507Z,5.03
2023-01-23T01:36:13.983Z,3.55
2023-01-23T01:38:42.226Z,7.80
2023-01-23T01:41:12.180Z,8.25
2023-01-23T01:43:40.686Z,6.00
2023-01-23T01:46:12.951Z,6.25
2023-01-23T01:51:19.793Z,5.88
2023-01-23T01:53:50.747Z,6.70
2023-01-23T01:56:19.784Z,5.65
2023-01-23T01:58:50.961Z,5.68
2023-01-23T02:01:19.871Z,5.45
2023-01-23T02:03:52.177Z,6.53
2023-01-23T02:06:21.225Z,4.75
2023-01-23T02:08:59.413Z,4.70
2023-01-23T02:11:27.429Z,7.22
2023-01-23T02:13:57.075Z,5.15
2023-01-23T02:16:40.281Z,7.05
2023-01-23T02:19:23.776Z,8.60
2023-01-23T02:22:02.294Z,7.15
2023-01-23T02:24:37.157Z,8.43
2023-01-23T02:27:06.623Z,7.38
2023-01-23T02:29:45.814Z,5.85
2023-01-23T02:32:13.884Z,8.48
2023-01-23T02:34:43.566Z,5.05
2023-01-23T02:37:11.747Z,6.05
2023-01-23T02:39:40.639Z,6.90
2023-01-23T02:42:10.844Z,5.30
2023-01-23T02:44:38.808Z,6.80
2023-01-23T02:47:11.861Z,6.78
2023-01-23T02:49:40.437Z,5.95
2023-01-23T02:52:09.674Z,6.05
2023-01-23T02:54:40.818Z,4.93
2023-01-23T02:57:10.470Z,6.43
2023-01-23T02:59:55.823Z,4.20
2023-01-23T03:02:26.552Z,5.75
2023-01-23T03:04:54.697Z,6.65
2023-01-23T03:07:22.679Z,5.30
2023-01-23T03:09:51.099Z,5.35
2023-01-23T03:12:22.873Z,5.43
2023-01-23T03:14:54.736Z,6.20
2023-01-23T03:17:23.461Z,4.72
2023-01-23T03:19:51.749Z,6.38
2023-01-23T03:22:20.116Z,5.95
2023-01-23T03:24:49.213Z,5.22
2023-01-23T03:27:17.328Z,7.00
2023-01-23T03:30:03.798Z,6.22
2023-01-23T03:32:31.783Z,5.53
2023-01-23T03:34:59.861Z,4.43
2023-01-23T03:37:27.855Z,5.13
2023-01-23T03:40:24.784Z,5.22
2023-01-23T03:42:52.743Z,6.70
2023-01-23T03:45:22.039Z,5.68
2023-01-23T03:47:50.076Z,6.18
2023-01-23T03:50:18.335Z,5.38
2023-01-23T03:52:46.456Z,5.45
2023-01-23T03:55:14.545Z,4.82
2023-01-23T03:57:42.597Z,4.28
2023-01-23T04:00:13.791Z,5.03
2023-01-23T04:02:43.331Z,6.03
2023-01-23T04:05:11.478Z,4.93
2023-01-23T04:07:39.422Z,6.63
2023-01-23T04:10:07.809Z,7.82
2023-01-23T04:12:35.736Z,5.85
2023-01-23T04:15:03.774Z,4.30
2023-01-23T04:17:31.707Z,6.80
2023-01-23T04:20:01.124Z,3.83
2023-01-23T04:22:29.223Z,4.38
2023-01-23T04:24:57.318Z,3.67
2023-01-23T04:27:25.386Z,6.80
2023-01-23T04:29:53.357Z,3.53
2023-01-23T04:32:21.610Z,5.07
2023-01-23T04:34:49.553Z,5.47
2023-01-23T04:37:19.139Z,5.75
2023-01-23T04:39:47.065Z,4.40
2023-01-23T04:42:15.045Z,3.72
2023-01-23T04:44:42.998Z,4.47
2023-01-23T04:47:11.026Z,4.70
2023-01-23T04:49:39.186Z,7.28
2023-01-23T04:52:07.144Z,5.40
2023-01-23T04:54:36.736Z,3.28
2023-01-23T04:57:04.966Z,4.43
2023-01-23T04:59:32.886Z,5.00
2023-01-23T05:02:02.378Z,4.15
2023-01-23T05:04:30.339Z,5.07
2023-01-23T05:06:58.338Z,5.05
2023-01-23T05:09:26.244Z,4.07
2023-01-23T05:11:55.581Z,4.72
2023-01-23T05:14:25.344Z,4.88
2023-01-23T05:16:53.371Z,5.88
2023-01-23T05:19:21.336Z,5.22
2023-01-23T05:21:49.316Z,7.13
2023-01-23T05:24:17.291Z,4.93
2023-01-23T05:26:45.336Z,3.08
2023-01-23T05:29:14.780Z,4.40
2023-01-23T05:31:42.806Z,3.67
2023-01-23T05:34:10.719Z,4.40
2023-01-23T05:36:39.050Z,3.65
2023-01-23T05:39:07.027Z,5.20
2023-01-23T05:41:35.057Z,4.78
2023-01-23T05:44:03.381Z,6.13
2023-01-23T05:46:32.887Z,4.82
2023-01-23T05:49:00.883Z,6.65
2023-01-23T05:51:32.488Z,4.80
2023-01-23T05:54:00.730Z,4.60
2023-01-23T05:56:29.386Z,4.35
2023-01-23T05:58:57.434Z,5.00
2023-01-23T06:01:25.554Z,5.07
2023-01-23T06:03:54.967Z,5.40
2023-01-23T06:06:23.027Z,3.45
2023-01-23T06:08:51.003Z,6.07
2023-01-23T06:11:18.990Z,4.38
2023-01-23T06:13:47.039Z,4.80
2023-01-23T06:16:15.102Z,4.18
2023-01-23T06:18:43.049Z,5.57
2023-01-23T06:21:12.430Z,3.55
2023-01-23T06:23:40.356Z,4.38
2023-01-23T06:26:08.373Z,5.00
2023-01-23T06:28:36.395Z,4.20
2023-01-23T06:31:06.556Z,5.03
2023-01-23T06:33:34.682Z,3.70
2023-01-23T06:36:04.195Z,4.35
2023-01-23T06:38:33.981Z,4.00
2023-01-23T06:41:02.500Z,4.53
2023-01-23T06:43:30.447Z,4.85
2023-01-23T06:45:58.754Z,4.03
2023-01-23T06:48:26.725Z,4.15
2023-01-23T06:50:55.069Z,5.13
2023-01-23T06:53:23.016Z,5.65
2023-01-23T06:55:52.357Z,3.75
2023-01-23T06:58:20.710Z,3.95
2023-01-23T07:00:48.707Z,4.50
2023-01-23T07:03:17.318Z,4.30
2023-01-23T07:05:45.376Z,5.38
2023-01-23T07:08:13.677Z,4.80
2023-01-23T07:10:41.970Z,5.57
2023-01-23T07:13:12.681Z,3.97
2023-01-23T07:15:41.269Z,4.75
2023-01-23T07:18:11.139Z,4.85
2023-01-23T07:20:39.087Z,4.47
2023-01-23T07:23:07.052Z,4.72
2023-01-23T07:25:35.275Z,4.03
2023-01-23T07:28:03.397Z,4.18
2023-01-23T07:30:32.832Z,4.38
2023-01-23T07:33:01.578Z,6.63
2023-01-23T07:35:29.690Z,4.40
2023-01-23T07:37:58.281Z,5.07
2023-01-23T07:40:26.698Z,3.38
2023-01-23T07:42:54.690Z,3.95
2023-01-23T07:45:22.634Z,4.40
2023-01-23T07:47:51.908Z,3.20
2023-01-23T07:50:20.124Z,3.05
2023-01-23T07:52:48.547Z,4.30
2023-01-23T07:55:16.719Z,5.25
2023-01-23T07:57:44.816Z,5.28
2023-01-23T08:00:13.539Z,5.50
2023-01-23T08:02:41.497Z,5.75
2023-01-23T08:05:11.453Z,3.90
2023-01-23T08:07:39.426Z,5.38
2023-01-23T08:10:08.334Z,3.88
2023-01-23T08:12:36.438Z,4.57
2023-01-23T08:15:05.426Z,4.28
2023-01-23T08:17:33.713Z,4.85
2023-01-23T08:20:01.643Z,6.90
2023-01-23T08:22:31.163Z,3.78
2023-01-23T08:24:59.189Z,7.18
2023-01-23T08:27:27.276Z,4.25
2023-01-23T08:29:55.294Z,5.10
2023-01-23T08:32:23.322Z,4.18
2023-01-23T08:34:51.447Z,4.25
2023-01-23T08:37:19.420Z,7.25
2023-01-23T08:39:48.824Z,4.22
2023-01-23T08:42:16.763Z,8.88
2023-01-23T08:44:44.859Z,5.80
2023-01-23T08:47:12.894Z,5.15
2023-01-23T08:49:40.872Z,5.30
2023-01-23T08:52:08.851Z,7.15
2023-01-23T08:54:37.126Z,6.97
2023-01-23T08:57:08.309Z,4.15
2023-01-23T08:59:36.314Z,6.63
2023-01-23T09:02:06.534Z,5.85
2023-01-23T09:04:34.566Z,5.03
2023-01-23T09:07:05.099Z,4.47
2023-01-23T09:09:35.928Z,4.68
2023-01-23T09:12:04.369Z,6.03
2023-01-23T09:14:36.102Z,5.57
2023-01-23T09:17:04.279Z,4.80
2023-01-23T09:19:32.660Z,6.68
2023-01-23T09:22:00.735Z,6.68
2023-01-23T09:24:28.736Z,5.35
2023-01-23T09:26:57.064Z,5.55
2023-01-23T09:29:25.110Z,4.57
2023-01-23T09:31:54.453Z,4.32
2023-01-23T09:34:22.476Z,6.28
2023-01-23T09:36:50.484Z,6.40
2023-01-23T09:39:18.832Z,7.63
2023-01-23T09:41:48.248Z,8.38
2023-01-23T09:44:23.328Z,5.53
2023-01-23T09:46:55.192Z,5.80
2023-01-23T09:49:29.300Z,10.00
2023-01-23T09:52:02.972Z,9.07
2023-01-23T09:54:38.273Z,4.88
2023-01-23T09:57:14.633Z,6.45
2023-01-23T10:00:00.451Z,6.25
2023-01-23T10:02:30.580Z,4.15
2023-01-23T10:05:02.631Z,4.70
2023-01-23T10:07:59.285Z,5.85
2023-01-23T10:10:54.856Z,5.45
2023-01-23T10:13:45.457Z,11.32
2023-01-23T10:16:49.900Z,6.00
2023-01-23T10:19:37.285Z,8.52
2023-01-23T10:22:22.577Z,4.55
2023-01-23T10:24:53.091Z,5.35
2023-01-23T10:27:22.804Z,5.57
2023-01-23T10:29:57.667Z,5.70
2023-01-23T10:32:28.153Z,4.50
2023-01-23T10:35:05.199Z,8.30
2023-01-23T10:37:44.217Z,6.03
2023-01-23T10:40:16.573Z,4.13
2023-01-23T10:42:44.785Z,5.70
2023-01-23T10:45:20.353Z,5.43
2023-01-23T10:47:54.724Z,7.93
2023-01-23T10:50:36.810Z,5.45
2023-01-23T10:53:08.292Z,6.50
2023-01-23T10:55:36.564Z,6.20
2023-01-23T10:58:06.952Z,5.20
2023-01-23T11:00:37.516Z,5.93
2023-01-23T11:03:32.547Z,5.40
2023-01-23T11:06:06.990Z,6.15
2023-01-23T11:08:37.285Z,4.32
2023-01-23T11:11:30.555Z,6.20
2023-01-23T11:14:11.900Z,5.78
2023-01-23T11:16:43.072Z,6.75
2023-01-23T11:19:19.177Z,5.28
2023-01-23T11:21:57.138Z,5.00
2023-01-23T11:24:41.117Z,6.55
2023-01-23T11:27:20.177Z,4.00
2023-01-23T11:30:02.360Z,5.60
2023-01-23T11:32:34.724Z,5.00
2023-01-23T11:35:13.372Z,7.40
2023-01-23T11:37:43.561Z,6.38
2023-01-23T11:40:15.138Z,6.72
2023-01-23T11:42:44.840Z,5.53
2023-01-23T11:45:20.593Z,5.25
2023-01-23T11:48:04.500Z,4.53
2023-01-23T11:50:54.966Z,5.30
2023-01-23T11:53:42.024Z,7.53
2023-01-23T11:56:40.886Z,5.30
2023-01-23T11:59:32.176Z,5.40
2023-01-23T12:02:25.513Z,5.90
2023-01-23T12:05:09.663Z,6.65
2023-01-23T12:07:47.008Z,4.85
2023-01-23T12:10:25.247Z,6.07
2023-01-23T12:13:07.906Z,6.72
2023-01-23T12:18:19.045Z,9.02
2023-01-23T12:20:59.972Z,7.38
2023-01-23T12:23:47.909Z,5.25
2023-01-23T12:26:22.375Z,4.93
2023-01-23T12:29:08.246Z,5.05
2023-01-23T12:31:49.694Z,5.50
2023-01-23T12:34:35.867Z,5.23
2023-01-23T12:37:30.384Z,4.20
2023-01-23T12:40:11.543Z,5.38
2023-01-23T12:42:47.419Z,4.15
2023-01-23T12:45:23.678Z,6.28
2023-01-23T12:48:01.754Z,5.57
2023-01-23T12:50:40.032Z,7.00
2023-01-23T12:53:12.304Z,5.22
2023-01-23T12:55:47.491Z,6.72
2023-01-23T12:58:20.345Z,5.65
2023-01-23T13:00:59.234Z,5.28
2023-01-23T13:03:55.185Z,5.45
2023-01-23T13:06:36.567Z,28.98
2023-01-23T13:09:18.376Z,23.00
2023-01-23T13:11:56.797Z,19.15
2023-01-23T13:15:03.502Z,19.15
2023-01-23T13:17:46.097Z,18.05
2023-01-23T13:20:43.662Z,19.85
2023-01-23T13:23:30.916Z,14.70
2023-01-23T13:26:29.276Z,17.70
2023-01-23T13:29:01.544Z,17.77
2023-01-23T13:34:39.246Z,16.83
2023-01-23T13:37:51.399Z,16.80
2023-01-23T13:40:25.000Z,14.45
2023-01-23T13:42:53.386Z,18.33
2023-01-23T13:45:27.647Z,18.05
2023-01-23T14:21:27.680Z,13.48
2023-01-23T14:24:01.246Z,12.25
2023-01-23T14:26:31.015Z,12.32
2023-01-23T14:29:01.635Z,13.43
2023-01-23T14:31:31.868Z,12.45
2023-01-23T14:34:09.616Z,12.88
2023-01-23T14:36:43.587Z,15.13
2023-01-23T14:39:17.987Z,11.82
2023-01-23T14:41:47.655Z,10.60
2023-01-23T14:44:22.409Z,13.10
2023-01-23T14:46:54.075Z,12.50
2023-01-23T14:49:27.580Z,13.57
2023-01-23T14:52:00.264Z,11.90
2023-01-23T14:54:32.888Z,10.65
2023-01-23T14:57:05.694Z,11.88
2023-01-23T14:59:36.162Z,11.93
2023-01-23T15:02:21.003Z,10.70
2023-01-23T15:05:10.684Z,9.15
2023-01-23T15:07:46.326Z,11.52
2023-01-23T15:10:17.401Z,11.02
2023-01-23T15:12:55.168Z,9.80
2023-01-23T15:15:27.687Z,10.15
2023-01-23T15:17:58.357Z,11.38
2023-01-23T15:20:35.406Z,8.93
2023-01-23T15:23:28.509Z,9.68
2023-01-23T15:26:23.616Z,9.80
2023-01-23T15:29:03.849Z,9.77
2023-01-23T15:31:53.405Z,9.82
2023-01-23T15:34:34.867Z,10.73
2023-01-23T15:37:07.017Z,10.65
2023-01-23T15:39:40.472Z,10.00
2023-01-23T15:42:27.629Z,9.73
2023-01-23T15:44:55.929Z,10.43
2023-01-23T15:47:23.922Z,8.38
2023-01-23T15:49:52.266Z,9.85
2023-01-23T15:52:23.559Z,8.23
2023-01-23T15:54:54.893Z,8.88
2023-01-23T15:57:23.220Z,8.37
2023-01-23T15:59:51.222Z,8.00
2023-01-23T16:02:30.732Z,10.20
2023-01-23T16:05:01.195Z,8.30
2023-01-23T16:07:35.054Z,8.43
2023-01-23T16:10:17.094Z,9.27
2023-01-23T16:12:46.957Z,10.02
2023-01-23T16:15:17.757Z,8.52
2023-01-23T16:17:46.195Z,8.10
2023-01-23T16:20:16.055Z,9.25
2023-01-23T16:22:45.433Z,8.52
2023-01-23T16:25:22.423Z,8.63
2023-01-23T16:27:51.519Z,8.60
2023-01-23T16:30:21.020Z,8.68
2023-01-23T16:32:49.178Z,8.55
2023-01-23T16:35:17.746Z,9.80
2023-01-23T16:37:50.548Z,8.75
2023-01-23T16:40:21.995Z,7.55
2023-01-23T16:42:53.056Z,8.68
2023-01-23T16:45:23.936Z,7.53
2023-01-23T16:47:52.328Z,10.30
2023-01-23T16:50:24.038Z,8.63
2023-01-23T16:52:56.168Z,6.45
2023-01-23T16:55:29.112Z,7.28
2023-01-23T16:57:58.632Z,6.72
2023-01-23T17:00:34.548Z,8.02
2023-01-23T17:03:09.062Z,12.43
2023-01-23T17:05:37.410Z,9.70
2023-01-23T17:08:17.690Z,9.93
2023-01-23T17:10:47.905Z,11.40
2023-01-23T17:13:17.475Z,9.90
2023-01-23T17:15:47.213Z,10.63
2023-01-23T17:18:23.106Z,9.93
2023-01-23T17:20:51.205Z,10.60
2023-01-23T17:23:19.169Z,8.65
2023-01-23T17:25:59.766Z,8.50
2023-01-23T17:28:29.582Z,10.38
2023-01-23T17:31:00.566Z,10.07
2023-01-23T17:33:31.812Z,10.77
2023-01-23T17:36:03.399Z,8.75
2023-01-23T17:38:32.060Z,9.55
2023-01-23T17:41:01.891Z,8.05
2023-01-23T17:43:30.186Z,9.57
2023-01-23T17:46:00.545Z,10.88
2023-01-23T17:48:31.838Z,10.75
2023-01-23T17:51:00.560Z,10.15
2023-01-23T17:53:30.695Z,7.97
2023-01-23T17:55:58.702Z,7.97
2023-01-23T17:58:28.128Z,7.65
2023-01-23T18:00:56.221Z,9.10
2023-01-23T18:03:25.418Z,8.50
2023-01-23T18:05:53.819Z,8.50
2023-01-23T18:08:22.946Z,8.38
2023-01-23T18:10:55.254Z,8.15
2023-01-23T18:16:06.747Z,7.40
2023-01-23T18:18:37.184Z,7.43
2023-01-23T18:21:08.141Z,9.23
2023-01-23T18:23:37.495Z,8.70
2023-01-23T18:26:23.643Z,7.13
2023-01-23T18:29:03.249Z,9.05
2023-01-23T18:31:39.848Z,7.53
2023-01-23T18:34:19.467Z,6.93
2023-01-23T18:37:04.748Z,7.03
2023-01-23T18:39:43.994Z,6.40
2023-01-23T18:42:17.351Z,6.90
2023-01-23T18:44:52.139Z,8.13
2023-01-23T18:47:21.839Z,9.55
2023-01-23T18:49:50.140Z,7.72
2023-01-23T18:52:22.992Z,6.95
2023-01-23T18:54:58.693Z,7.35
2023-01-23T18:57:42.956Z,6.93
2023-01-23T19:00:19.877Z,7.35
2023-01-23T19:02:52.313Z,7.55
2023-01-23T19:05:26.965Z,6.55
2023-01-23T19:07:56.050Z,7.15
2023-01-23T19:10:28.036Z,6.72
2023-01-23T19:13:08.520Z,6.10
2023-01-23T19:15:45.268Z,7.22
2023-01-23T19:18:39.780Z,6.57
2023-01-23T19:21:16.047Z,6.13
2023-01-23T19:23:50.283Z,7.15
2023-01-23T19:26:19.319Z,6.15
2023-01-23T19:28:47.859Z,5.65
2023-01-23T19:31:22.002Z,6.22
2023-01-23T19:33:52.090Z,5.93
2023-01-23T19:36:20.593Z,7.30
2023-01-23T19:38:48.843Z,7.63
2023-01-23T19:41:20.832Z,6.10
2023-01-23T19:43:50.560Z,8.15
2023-01-23T19:46:19.454Z,6.60
2023-01-23T19:48:47.937Z,6.47
2023-01-23T19:51:21.744Z,5.72
2023-01-23T19:53:49.783Z,6.72
2023-01-23T19:56:18.958Z,5.55
2023-01-23T19:58:47.662Z,6.03
2023-01-23T20:01:23.135Z,6.07
2023-01-23T20:03:51.833Z,6.03
2023-01-23T20:06:21.090Z,5.95
2023-01-23T20:08:49.086Z,6.70
2023-01-23T20:11:17.010Z,5.50
2023-01-23T20:13:45.359Z,5.50
2023-01-23T20:16:18.473Z,5.40
2023-01-23T20:18:48.081Z,5.85
2023-01-23T20:21:16.924Z,5.93
2023-01-23T20:23:46.871Z,5.60
2023-01-23T20:26:16.432Z,5.38
2023-01-23T20:28:47.374Z,4.75
2023-01-23T20:31:15.537Z,5.28
2023-01-23T20:33:43.570Z,5.30
2023-01-23T20:36:13.473Z,5.10
2023-01-23T20:38:41.852Z,5.82
2023-01-23T20:41:12.654Z,5.55
2023-01-23T20:43:41.149Z,5.85
2023-01-23T20:46:09.732Z,4.72
2023-01-23T20:48:39.112Z,5.65
2023-01-23T20:51:09.734Z,4.82
2023-01-23T20:53:39.944Z,5.55
2023-01-23T20:56:10.215Z,6.80
2023-01-23T20:58:56.157Z,5.38
2023-01-23T21:01:26.151Z,5.03
2023-01-23T21:03:54.282Z,4.60
2023-01-23T21:06:22.855Z,5.47
2023-01-23T21:08:50.860Z,5.07
2023-01-23T21:11:21.184Z,4.90
2023-01-23T21:13:54.599Z,4.93
2023-01-23T21:16:22.563Z,5.40
2023-01-23T21:18:50.560Z,4.90
2023-01-23T21:21:21.676Z,5.00
2023-01-23T21:23:50.625Z,5.00
2023-01-23T21:26:19.963Z,5.10
2023-01-23T21:28:49.333Z,4.70
2023-01-23T21:31:21.074Z,4.50
2023-01-23T21:33:49.398Z,4.95
2023-01-23T21:36:20.955Z,4.70
2023-01-23T21:38:51.207Z,5.37
2023-01-23T21:41:20.101Z,4.93
2023-01-23T21:43:48.303Z,5.80
2023-01-23T21:46:20.060Z,4.60
2023-01-23T21:48:48.103Z,4.53
2023-01-23T21:51:17.862Z,5.10
2023-01-23T21:53:47.873Z,4.70
2023-01-23T21:56:18.112Z,4.57
2023-01-23T21:58:47.104Z,4.68
2023-01-23T22:01:37.657Z,4.82
2023-01-23T22:04:09.544Z,4.35
2023-01-23T22:06:39.566Z,5.85
2023-01-23T22:09:08.756Z,4.47
2023-01-23T22:11:37.465Z,4.25
2023-01-23T22:14:07.514Z,4.30
2023-01-23T22:16:48.025Z,4.30
2023-01-23T22:19:24.670Z,5.07
2023-01-23T22:21:53.248Z,4.13
2023-01-23T22:24:21.248Z,4.47
2023-01-23T22:26:49.323Z,3.90
2023-01-23T22:29:17.464Z,5.15
2023-01-23T22:31:45.576Z,4.13
2023-01-23T22:34:13.608Z,4.18
2023-01-23T22:36:42.989Z,4.65
2023-01-23T22:39:16.067Z,4.63
2023-01-23T22:41:45.539Z,4.70
2023-01-23T22:44:13.802Z,4.53
2023-01-23T22:46:41.859Z,3.95
2023-01-23T22:49:12.863Z,4.00
2023-01-23T22:51:42.174Z,4.05
2023-01-23T22:54:10.187Z,4.45
2023-01-23T22:56:38.747Z,3.45
2023-01-23T22:59:06.937Z,4.00
2023-01-23T23:01:34.958Z,5.15
2023-01-23T23:04:03.092Z,4.72
2023-01-23T23:06:31.132Z,3.92
2023-01-23T23:09:00.488Z,4.05
2023-01-23T23:11:29.490Z,4.20
2023-01-23T23:13:58.244Z,5.13
2023-01-23T23:16:28.053Z,4.18
2023-01-23T23:18:58.014Z,4.00
2023-01-23T23:21:31.598Z,4.43
2023-01-23T23:24:02.023Z,4.32
2023-01-23T23:26:31.691Z,5.22
2023-01-23T23:29:00.506Z,4.15
2023-01-23T23:31:28.990Z,4.47
2023-01-23T23:33:57.053Z,6.90
2023-01-23T23:36:25.426Z,34.78
2023-01-23T23:38:53.436Z,26.02
2023-01-23T23:41:22.786Z,20.77
2023-01-23T23:43:50.875Z,23.67
2023-01-23T23:46:19.250Z,21.50
2023-01-23T23:48:48.191Z,22.00
2023-01-23T23:51:18.708Z,23.25
2023-01-23T23:53:47.390Z,21.65
2023-01-23T23:56:21.284Z,19.10
2023-01-23T23:58:51.151Z,21.77
